sensor_id;sensor_type;location;lat;lon;timestamp;P1;durP1;ratioP1;P2;durP2;ratioP2
28605;SDS011;46498;49.968;7.754;2024-01-30T00:00:29;9.88;;;6.45;;
28605;SDS011;46498;49.968;7.754;2024-01-30T00:05:30;12.43;;;6.10;;
28605;SDS011;46498;49.968;7.754;2024-01-30T00:10:31;19.17;;;7.65;;
28605;SDS011;46498;49.968;7.754;2024-01-30T00:15:32;15.68;;;7.53;;
28605;SDS011;46498;49.968;7.754;2024-01-30T00:20:33;15.80;;;6.65;;
28605;SDS011;46498;49.968;7.754;2024-01-30T00:25:34;14.95;;;7.30;;
28605;SDS011;46498;49.968;7.754;2024-01-30T00:30:35;12.45;;;7.32;;
28605;SDS011;46498;49.968;7.754;2024-01-30T00:35:35;12.30;;;6.03;;
28605;SDS011;46498;49.968;7.754;2024-01-30T00:40:36;12.43;;;6.68;;
28605;SDS011;46498;49.968;7.754;2024-01-30T00:45:38;12.82;;;6.40;;
28605;SDS011;46498;49.968;7.754;2024-01-30T00:50:38;17.73;;;8.88;;
28605;SDS011;46498;49.968;7.754;2024-01-30T00:55:39;19.35;;;9.52;;
28605;SDS011;46498;49.968;7.754;2024-01-30T01:00:40;15.68;;;7.37;;
28605;SDS011;46498;49.968;7.754;2024-01-30T01:05:41;12.37;;;7.03;;
28605;SDS011;46498;49.968;7.754;2024-01-30T01:10:42;15.10;;;7.60;;
28605;SDS011;46498;49.968;7.754;2024-01-30T01:15:43;14.68;;;6.37;;
28605;SDS011;46498;49.968;7.754;2024-01-30T01:20:43;13.62;;;6.35;;
28605;SDS011;46498;49.968;7.754;2024-01-30T01:25:44;13.00;;;7.80;;
28605;SDS011;46498;49.968;7.754;2024-01-30T01:30:45;14.90;;;5.95;;
28605;SDS011;46498;49.968;7.754;2024-01-30T01:35:46;13.07;;;6.50;;
28605;SDS011;46498;49.968;7.754;2024-01-30T01:40:47;16.12;;;7.18;;
28605;SDS011;46498;49.968;7.754;2024-01-30T01:45:48;13.05;;;6.90;;
28605;SDS011;46498;49.968;7.754;2024-01-30T01:50:49;12.32;;;6.20;;
28605;SDS011;46498;49.968;7.754;2024-01-30T01:55:52;11.93;;;6.40;;
28605;SDS011;46498;49.968;7.754;2024-01-30T02:00:54;10.10;;;6.17;;
28605;SDS011;46498;49.968;7.754;2024-01-30T02:05:57;16.05;;;6.57;;
28605;SDS011;46498;49.968;7.754;2024-01-30T02:10:59;12.98;;;6.18;;
28605;SDS011;46498;49.968;7.754;2024-01-30T02:16:00;14.60;;;6.00;;
28605;SDS011;46498;49.968;7.754;2024-01-30T02:21:04;10.65;;;6.05;;
28605;SDS011;46498;49.968;7.754;2024-01-30T02:26:05;12.85;;;6.07;;
28605;SDS011;46498;49.968;7.754;2024-01-30T02:31:06;12.48;;;5.72;;
28605;SDS011;46498;49.968;7.754;2024-01-30T02:36:07;16.33;;;7.10;;
28605;SDS011;46498;49.968;7.754;2024-01-30T02:41:08;13.55;;;7.03;;
28605;SDS011;46498;49.968;7.754;2024-01-30T02:46:09;11.00;;;6.53;;
28605;SDS011;46498;49.968;7.754;2024-01-30T02:51:11;13.07;;;7.62;;
28605;SDS011;46498;49.968;7.754;2024-01-30T02:56:12;17.10;;;9.60;;
28605;SDS011;46498;49.968;7.754;2024-01-30T03:01:14;15.38;;;9.10;;
28605;SDS011;46498;49.968;7.754;2024-01-30T03:06:14;20.27;;;10.07;;
28605;SDS011;46498;49.968;7.754;2024-01-30T03:11:18;15.57;;;9.52;;
28605;SDS011;46498;49.968;7.754;2024-01-30T03:16:19;18.05;;;10.40;;
28605;SDS011;46498;49.968;7.754;2024-01-30T03:21:20;18.27;;;9.15;;
28605;SDS011;46498;49.968;7.754;2024-01-30T03:26:20;17.37;;;8.75;;
28605;SDS011;46498;49.968;7.754;2024-01-30T03:31:21;14.90;;;9.13;;
28605;SDS011;46498;49.968;7.754;2024-01-30T03:36:22;21.33;;;11.12;;
28605;SDS011;46498;49.968;7.754;2024-01-30T03:41:23;17.62;;;11.20;;
28605;SDS011;46498;49.968;7.754;2024-01-30T03:46:24;21.17;;;10.43;;
28605;SDS011;46498;49.968;7.754;2024-01-30T03:51:25;20.00;;;10.18;;
28605;SDS011;46498;49.968;7.754;2024-01-30T03:56:26;20.37;;;11.63;;
28605;SDS011;46498;49.968;7.754;2024-01-30T04:01:27;26.95;;;13.77;;
28605;SDS011;46498;49.968;7.754;2024-01-30T04:06:28;23.35;;;13.20;;
28605;SDS011;46498;49.968;7.754;2024-01-30T04:11:29;21.42;;;12.70;;
28605;SDS011;46498;49.968;7.754;2024-01-30T04:16:30;22.10;;;11.93;;
28605;SDS011;46498;49.968;7.754;2024-01-30T04:21:31;17.67;;;9.55;;
28605;SDS011;46498;49.968;7.754;2024-01-30T04:26:32;17.90;;;10.07;;
28605;SDS011;46498;49.968;7.754;2024-01-30T04:31:32;17.20;;;9.25;;
28605;SDS011;46498;49.968;7.754;2024-01-30T04:36:33;17.73;;;9.52;;
28605;SDS011;46498;49.968;7.754;2024-01-30T04:41:34;17.05;;;10.65;;
28605;SDS011;46498;49.968;7.754;2024-01-30T04:46:35;18.77;;;10.35;;
28605;SDS011;46498;49.968;7.754;2024-01-30T04:51:36;18.33;;;9.82;;
28605;SDS011;46498;49.968;7.754;2024-01-30T04:56:37;19.50;;;9.65;;
28605;SDS011;46498;49.968;7.754;2024-01-30T05:01:38;21.00;;;9.65;;
28605;SDS011;46498;49.968;7.754;2024-01-30T05:06:39;17.15;;;9.25;;
28605;SDS011;46498;49.968;7.754;2024-01-30T05:11:40;16.02;;;8.80;;
28605;SDS011;46498;49.968;7.754;2024-01-30T05:16:41;18.62;;;10.23;;
28605;SDS011;46498;49.968;7.754;2024-01-30T05:21:47;21.02;;;9.93;;
28605;SDS011;46498;49.968;7.754;2024-01-30T05:26:48;17.30;;;9.23;;
28605;SDS011;46498;49.968;7.754;2024-01-30T05:31:48;18.27;;;10.32;;
28605;SDS011;46498;49.968;7.754;2024-01-30T05:36:49;18.85;;;9.77;;
28605;SDS011;46498;49.968;7.754;2024-01-30T05:41:50;20.00;;;10.25;;
28605;SDS011;46498;49.968;7.754;2024-01-30T05:46:51;17.62;;;9.65;;
28605;SDS011;46498;49.968;7.754;2024-01-30T05:51:52;20.12;;;10.27;;
28605;SDS011;46498;49.968;7.754;2024-01-30T05:56:53;16.48;;;9.85;;
28605;SDS011;46498;49.968;7.754;2024-01-30T06:01:54;17.10;;;10.07;;
28605;SDS011;46498;49.968;7.754;2024-01-30T06:06:55;19.02;;;9.43;;
28605;SDS011;46498;49.968;7.754;2024-01-30T06:11:56;16.62;;;8.68;;
28605;SDS011;46498;49.968;7.754;2024-01-30T06:16:57;16.62;;;9.20;;
28605;SDS011;46498;49.968;7.754;2024-01-30T06:21:58;19.85;;;9.48;;
28605;SDS011;46498;49.968;7.754;2024-01-30T06:26:59;18.00;;;9.30;;
28605;SDS011;46498;49.968;7.754;2024-01-30T06:31:59;19.48;;;9.88;;
28605;SDS011;46498;49.968;7.754;2024-01-30T06:37:01;21.60;;;9.20;;
28605;SDS011;46498;49.968;7.754;2024-01-30T06:42:02;14.63;;;7.28;;
28605;SDS011;46498;49.968;7.754;2024-01-30T06:47:03;15.57;;;9.02;;
28605;SDS011;46498;49.968;7.754;2024-01-30T06:52:05;16.73;;;8.23;;
28605;SDS011;46498;49.968;7.754;2024-01-30T06:57:06;17.62;;;8.30;;
28605;SDS011;46498;49.968;7.754;2024-01-30T07:02:12;13.40;;;8.07;;
28605;SDS011;46498;49.968;7.754;2024-01-30T07:07:13;17.90;;;7.95;;
28605;SDS011;46498;49.968;7.754;2024-01-30T07:12:15;14.90;;;8.13;;
28605;SDS011;46498;49.968;7.754;2024-01-30T07:17:16;14.05;;;8.15;;
28605;SDS011;46498;49.968;7.754;2024-01-30T07:22:17;33.15;;;11.52;;
28605;SDS011;46498;49.968;7.754;2024-01-30T07:27:18;17.58;;;9.32;;
28605;SDS011;46498;49.968;7.754;2024-01-30T07:32:19;15.88;;;8.05;;
28605;SDS011;46498;49.968;7.754;2024-01-30T07:37:20;13.80;;;7.70;;
28605;SDS011;46498;49.968;7.754;2024-01-30T07:42:22;13.95;;;8.45;;
28605;SDS011;46498;49.968;7.754;2024-01-30T07:47:22;15.73;;;8.50;;
28605;SDS011;46498;49.968;7.754;2024-01-30T07:52:23;15.98;;;9.75;;
28605;SDS011;46498;49.968;7.754;2024-01-30T07:57:24;13.93;;;7.57;;
28605;SDS011;46498;49.968;7.754;2024-01-30T08:02:25;15.65;;;8.23;;
28605;SDS011;46498;49.968;7.754;2024-01-30T08:07:26;15.50;;;8.65;;
28605;SDS011;46498;49.968;7.754;2024-01-30T08:12:30;18.10;;;7.62;;
28605;SDS011;46498;49.968;7.754;2024-01-30T08:17:31;16.62;;;7.25;;
28605;SDS011;46498;49.968;7.754;2024-01-30T08:22:32;18.50;;;8.20;;
28605;SDS011;46498;49.968;7.754;2024-01-30T08:27:33;15.32;;;8.25;;
28605;SDS011;46498;49.968;7.754;2024-01-30T08:32:35;16.40;;;9.18;;
28605;SDS011;46498;49.968;7.754;2024-01-30T08:37:36;14.80;;;8.00;;
28605;SDS011;46498;49.968;7.754;2024-01-30T08:42:38;19.70;;;8.38;;
28605;SDS011;46498;49.968;7.754;2024-01-30T08:47:40;15.02;;;7.85;;
28605;SDS011;46498;49.968;7.754;2024-01-30T08:52:41;14.63;;;8.63;;
28605;SDS011;46498;49.968;7.754;2024-01-30T08:57:42;14.05;;;7.45;;
28605;SDS011;46498;49.968;7.754;2024-01-30T09:02:43;12.75;;;7.30;;
28605;SDS011;46498;49.968;7.754;2024-01-30T09:07:45;17.15;;;7.55;;
28605;SDS011;46498;49.968;7.754;2024-01-30T09:12:47;15.68;;;7.45;;
28605;SDS011;46498;49.968;7.754;2024-01-30T09:17:48;10.57;;;6.32;;
28605;SDS011;46498;49.968;7.754;2024-01-30T09:22:49;15.85;;;7.82;;
28605;SDS011;46498;49.968;7.754;2024-01-30T09:27:50;16.98;;;8.25;;
28605;SDS011;46498;49.968;7.754;2024-01-30T09:32:51;21.60;;;8.90;;
28605;SDS011;46498;49.968;7.754;2024-01-30T09:37:52;17.08;;;7.75;;
28605;SDS011;46498;49.968;7.754;2024-01-30T09:42:53;13.62;;;7.53;;
28605;SDS011;46498;49.968;7.754;2024-01-30T09:47:55;14.15;;;7.65;;
28605;SDS011;46498;49.968;7.754;2024-01-30T09:52:56;16.87;;;7.57;;
28605;SDS011;46498;49.968;7.754;2024-01-30T09:57:59;14.63;;;8.85;;
28605;SDS011;46498;49.968;7.754;2024-01-30T10:03:00;15.35;;;8.35;;
28605;SDS011;46498;49.968;7.754;2024-01-30T10:08:01;13.20;;;7.43;;
28605;SDS011;46498;49.968;7.754;2024-01-30T10:13:07;15.07;;;7.82;;
28605;SDS011;46498;49.968;7.754;2024-01-30T10:18:08;15.60;;;8.00;;
28605;SDS011;46498;49.968;7.754;2024-01-30T10:23:10;14.18;;;7.28;;
28605;SDS011;46498;49.968;7.754;2024-01-30T10:28:12;15.02;;;7.53;;
28605;SDS011;46498;49.968;7.754;2024-01-30T10:33:13;14.48;;;7.87;;
28605;SDS011;46498;49.968;7.754;2024-01-30T10:38:14;12.70;;;7.30;;
28605;SDS011;46498;49.968;7.754;2024-01-30T10:43:18;17.02;;;8.45;;
28605;SDS011;46498;49.968;7.754;2024-01-30T10:48:25;12.93;;;7.90;;
28605;SDS011;46498;49.968;7.754;2024-01-30T10:53:31;15.10;;;7.28;;
28605;SDS011;46498;49.968;7.754;2024-01-30T10:58:32;18.42;;;9.30;;
28605;SDS011;46498;49.968;7.754;2024-01-30T11:03:34;15.52;;;8.35;;
28605;SDS011;46498;49.968;7.754;2024-01-30T11:08:36;13.75;;;8.50;;
28605;SDS011;46498;49.968;7.754;2024-01-30T11:13:37;12.27;;;7.68;;
28605;SDS011;46498;49.968;7.754;2024-01-30T11:18:38;12.32;;;7.32;;
28605;SDS011;46498;49.968;7.754;2024-01-30T11:23:39;14.15;;;7.00;;
28605;SDS011;46498;49.968;7.754;2024-01-30T11:28:40;12.23;;;6.53;;
28605;SDS011;46498;49.968;7.754;2024-01-30T11:33:41;11.25;;;5.90;;
28605;SDS011;46498;49.968;7.754;2024-01-30T11:38:42;13.90;;;6.90;;
28605;SDS011;46498;49.968;7.754;2024-01-30T11:43:52;14.77;;;7.43;;
28605;SDS011;46498;49.968;7.754;2024-01-30T11:48:53;11.68;;;6.60;;
28605;SDS011;46498;49.968;7.754;2024-01-30T11:53:55;9.20;;;5.55;;
28605;SDS011;46498;49.968;7.754;2024-01-30T11:58:55;11.80;;;6.22;;
28605;SDS011;46498;49.968;7.754;2024-01-30T12:03:57;11.95;;;6.07;;
28605;SDS011;46498;49.968;7.754;2024-01-30T12:09:00;15.25;;;6.22;;
28605;SDS011;46498;49.968;7.754;2024-01-30T12:14:04;11.05;;;5.80;;
28605;SDS011;46498;49.968;7.754;2024-01-30T12:19:05;12.48;;;6.22;;
28605;SDS011;46498;49.968;7.754;2024-01-30T12:24:06;12.35;;;6.15;;
28605;SDS011;46498;49.968;7.754;2024-01-30T12:29:08;9.70;;;6.25;;
28605;SDS011;46498;49.968;7.754;2024-01-30T12:34:08;18.08;;;7.20;;
28605;SDS011;46498;49.968;7.754;2024-01-30T12:39:13;17.02;;;6.25;;
28605;SDS011;46498;49.968;7.754;2024-01-30T12:44:15;14.50;;;6.32;;
28605;SDS011;46498;49.968;7.754;2024-01-30T12:49:16;9.07;;;5.72;;
28605;SDS011;46498;49.968;7.754;2024-01-30T12:54:17;13.60;;;6.15;;
28605;SDS011;46498;49.968;7.754;2024-01-30T12:59:18;11.80;;;6.20;;
28605;SDS011;46498;49.968;7.754;2024-01-30T13:04:19;14.50;;;6.35;;
28605;SDS011;46498;49.968;7.754;2024-01-30T13:09:22;13.32;;;6.57;;
28605;SDS011;46498;49.968;7.754;2024-01-30T13:14:24;15.45;;;7.35;;
28605;SDS011;46498;49.968;7.754;2024-01-30T13:19:25;13.90;;;6.00;;
28605;SDS011;46498;49.968;7.754;2024-01-30T13:24:26;14.65;;;7.32;;
28605;SDS011;46498;49.968;7.754;2024-01-30T13:29:27;11.27;;;6.22;;
28605;SDS011;46498;49.968;7.754;2024-01-30T13:34:28;13.62;;;6.07;;
28605;SDS011;46498;49.968;7.754;2024-01-30T13:39:29;14.63;;;6.72;;
28605;SDS011;46498;49.968;7.754;2024-01-30T13:44:37;14.13;;;6.43;;
28605;SDS011;46498;49.968;7.754;2024-01-30T13:49:38;10.20;;;5.80;;
28605;SDS011;46498;49.968;7.754;2024-01-30T13:54:39;11.65;;;6.30;;
28605;SDS011;46498;49.968;7.754;2024-01-30T13:59:40;12.60;;;6.32;;
28605;SDS011;46498;49.968;7.754;2024-01-30T14:04:41;16.17;;;6.60;;
28605;SDS011;46498;49.968;7.754;2024-01-30T14:09:42;12.70;;;6.87;;
28605;SDS011;46498;49.968;7.754;2024-01-30T14:14:43;12.40;;;6.47;;
28605;SDS011;46498;49.968;7.754;2024-01-30T14:19:44;19.12;;;6.53;;
28605;SDS011;46498;49.968;7.754;2024-01-30T14:24:45;10.60;;;6.03;;
28605;SDS011;46498;49.968;7.754;2024-01-30T14:29:46;15.85;;;6.15;;
28605;SDS011;46498;49.968;7.754;2024-01-30T14:34:47;16.87;;;6.35;;
28605;SDS011;46498;49.968;7.754;2024-01-30T14:39:48;18.05;;;7.05;;
28605;SDS011;46498;49.968;7.754;2024-01-30T14:44:50;15.00;;;7.22;;
28605;SDS011;46498;49.968;7.754;2024-01-30T14:49:50;13.45;;;6.85;;
28605;SDS011;46498;49.968;7.754;2024-01-30T14:54:52;15.60;;;7.50;;
28605;SDS011;46498;49.968;7.754;2024-01-30T14:59:53;19.52;;;7.53;;
28605;SDS011;46498;49.968;7.754;2024-01-30T15:04:54;16.92;;;7.68;;
28605;SDS011;46498;49.968;7.754;2024-01-30T15:09:55;27.65;;;13.18;;
28605;SDS011;46498;49.968;7.754;2024-01-30T15:14:56;17.90;;;8.70;;
28605;SDS011;46498;49.968;7.754;2024-01-30T15:19:58;15.90;;;6.60;;
28605;SDS011;46498;49.968;7.754;2024-01-30T15:25:00;16.90;;;7.18;;
28605;SDS011;46498;49.968;7.754;2024-01-30T15:30:02;13.05;;;6.80;;
28605;SDS011;46498;49.968;7.754;2024-01-30T15:35:04;12.13;;;6.50;;
28605;SDS011;46498;49.968;7.754;2024-01-30T15:40:06;13.45;;;6.25;;
28605;SDS011;46498;49.968;7.754;2024-01-30T15:45:09;11.40;;;6.50;;
28605;SDS011;46498;49.968;7.754;2024-01-30T15:50:13;13.10;;;5.75;;
28605;SDS011;46498;49.968;7.754;2024-01-30T15:55:14;10.18;;;5.70;;
28605;SDS011;46498;49.968;7.754;2024-01-30T16:00:16;15.57;;;7.03;;
28605;SDS011;46498;49.968;7.754;2024-01-30T16:05:17;12.02;;;5.65;;
28605;SDS011;46498;49.968;7.754;2024-01-30T16:10:18;14.45;;;6.07;;
28605;SDS011;46498;49.968;7.754;2024-01-30T16:15:20;13.05;;;5.80;;
28605;SDS011;46498;49.968;7.754;2024-01-30T16:20:21;11.80;;;5.35;;
28605;SDS011;46498;49.968;7.754;2024-01-30T16:25:22;12.23;;;6.03;;
28605;SDS011;46498;49.968;7.754;2024-01-30T16:30:23;11.07;;;5.40;;
28605;SDS011;46498;49.968;7.754;2024-01-30T16:35:24;11.20;;;5.05;;
28605;SDS011;46498;49.968;7.754;2024-01-30T16:40:46;14.63;;;8.15;;
28605;SDS011;46498;49.968;7.754;2024-01-30T16:45:49;9.90;;;5.43;;
28605;SDS011;46498;49.968;7.754;2024-01-30T16:50:52;13.40;;;5.37;;
28605;SDS011;46498;49.968;7.754;2024-01-30T16:55:53;12.37;;;6.05;;
28605;SDS011;46498;49.968;7.754;2024-01-30T17:00:54;13.02;;;5.32;;
28605;SDS011;46498;49.968;7.754;2024-01-30T17:05:56;11.25;;;6.05;;
28605;SDS011;46498;49.968;7.754;2024-01-30T17:11:05;12.63;;;6.03;;
28605;SDS011;46498;49.968;7.754;2024-01-30T17:16:06;17.60;;;6.87;;
28605;SDS011;46498;49.968;7.754;2024-01-30T17:21:07;21.30;;;9.50;;
28605;SDS011;46498;49.968;7.754;2024-01-30T17:26:10;28.87;;;13.23;;
28605;SDS011;46498;49.968;7.754;2024-01-30T17:31:11;45.23;;;21.23;;
28605;SDS011;46498;49.968;7.754;2024-01-30T17:36:12;23.58;;;12.48;;
28605;SDS011;46498;49.968;7.754;2024-01-30T17:41:14;18.12;;;9.82;;
28605;SDS011;46498;49.968;7.754;2024-01-30T17:46:15;17.37;;;9.98;;
28605;SDS011;46498;49.968;7.754;2024-01-30T17:51:16;14.93;;;8.27;;
28605;SDS011;46498;49.968;7.754;2024-01-30T17:56:18;21.48;;;10.27;;
28605;SDS011;46498;49.968;7.754;2024-01-30T18:01:19;16.17;;;9.02;;
28605;SDS011;46498;49.968;7.754;2024-01-30T18:06:20;14.80;;;7.90;;
28605;SDS011;46498;49.968;7.754;2024-01-30T18:11:21;14.93;;;7.95;;
28605;SDS011;46498;49.968;7.754;2024-01-30T18:16:22;14.25;;;7.85;;
28605;SDS011;46498;49.968;7.754;2024-01-30T18:21:25;15.32;;;7.68;;
28605;SDS011;46498;49.968;7.754;2024-01-30T18:26:26;16.02;;;7.85;;
28605;SDS011;46498;49.968;7.754;2024-01-30T18:31:27;14.52;;;7.50;;
28605;SDS011;46498;49.968;7.754;2024-01-30T18:36:28;16.45;;;7.10;;
28605;SDS011;46498;49.968;7.754;2024-01-30T18:41:29;15.38;;;8.18;;
28605;SDS011;46498;49.968;7.754;2024-01-30T18:46:30;16.33;;;7.50;;
28605;SDS011;46498;49.968;7.754;2024-01-30T18:51:31;15.65;;;7.65;;
28605;SDS011;46498;49.968;7.754;2024-01-30T18:56:32;11.35;;;7.05;;
28605;SDS011;46498;49.968;7.754;2024-01-30T19:01:33;14.02;;;7.72;;
28605;SDS011;46498;49.968;7.754;2024-01-30T19:06:34;16.30;;;8.23;;
28605;SDS011;46498;49.968;7.754;2024-01-30T19:11:35;13.02;;;7.90;;
28605;SDS011;46498;49.968;7.754;2024-01-30T19:16:36;17.58;;;9.57;;
28605;SDS011;46498;49.968;7.754;2024-01-30T19:21:37;17.92;;;8.93;;
28605;SDS011;46498;49.968;7.754;2024-01-30T19:26:38;19.17;;;8.60;;
28605;SDS011;46498;49.968;7.754;2024-01-30T19:31:39;15.48;;;8.73;;
28605;SDS011;46498;49.968;7.754;2024-01-30T19:36:40;19.60;;;8.30;;
28605;SDS011;46498;49.968;7.754;2024-01-30T19:41:41;18.52;;;8.30;;
28605;SDS011;46498;49.968;7.754;2024-01-30T19:46:45;13.57;;;7.30;;
28605;SDS011;46498;49.968;7.754;2024-01-30T19:51:46;15.23;;;7.95;;
28605;SDS011;46498;49.968;7.754;2024-01-30T19:56:46;21.27;;;9.45;;
28605;SDS011;46498;49.968;7.754;2024-01-30T20:01:48;16.08;;;10.07;;
28605;SDS011;46498;49.968;7.754;2024-01-30T20:06:49;15.80;;;9.20;;
28605;SDS011;46498;49.968;7.754;2024-01-30T20:11:50;19.50;;;8.95;;
28605;SDS011;46498;49.968;7.754;2024-01-30T20:16:51;18.70;;;8.93;;
28605;SDS011;46498;49.968;7.754;2024-01-30T20:21:52;19.58;;;8.98;;
28605;SDS011;46498;49.968;7.754;2024-01-30T20:26:53;16.98;;;8.45;;
28605;SDS011;46498;49.968;7.754;2024-01-30T20:31:54;16.35;;;8.35;;
28605;SDS011;46498;49.968;7.754;2024-01-30T20:36:55;15.02;;;8.73;;
28605;SDS011;46498;49.968;7.754;2024-01-30T20:41:56;15.80;;;8.55;;
28605;SDS011;46498;49.968;7.754;2024-01-30T20:46:57;17.92;;;9.35;;
28605;SDS011;46498;49.968;7.754;2024-01-30T20:51:58;20.50;;;8.18;;
28605;SDS011;46498;49.968;7.754;2024-01-30T20:57:00;15.43;;;7.62;;
28605;SDS011;46498;49.968;7.754;2024-01-30T21:02:01;17.85;;;7.95;;
28605;SDS011;46498;49.968;7.754;2024-01-30T21:07:02;18.58;;;8.73;;
28605;SDS011;46498;49.968;7.754;2024-01-30T21:12:04;15.32;;;8.10;;
28605;SDS011;46498;49.968;7.754;2024-01-30T21:17:05;15.52;;;7.47;;
28605;SDS011;46498;49.968;7.754;2024-01-30T21:22:07;18.08;;;7.85;;
28605;SDS011;46498;49.968;7.754;2024-01-30T21:27:08;12.45;;;7.12;;
28605;SDS011;46498;49.968;7.754;2024-01-30T21:32:09;17.48;;;8.13;;
28605;SDS011;46498;49.968;7.754;2024-01-30T21:37:11;15.25;;;7.62;;
28605;SDS011;46498;49.968;7.754;2024-01-30T21:42:13;15.88;;;8.45;;
28605;SDS011;46498;49.968;7.754;2024-01-30T21:47:14;14.00;;;8.07;;
28605;SDS011;46498;49.968;7.754;2024-01-30T21:52:15;14.40;;;7.25;;
28605;SDS011;46498;49.968;7.754;2024-01-30T21:57:17;44.15;;;18.95;;
28605;SDS011;46498;49.968;7.754;2024-01-30T22:02:18;103.07;;;41.72;;
28605;SDS011;46498;49.968;7.754;2024-01-30T22:07:19;36.50;;;16.17;;
28605;SDS011;46498;49.968;7.754;2024-01-30T22:12:20;28.58;;;12.35;;
28605;SDS011;46498;49.968;7.754;2024-01-30T22:17:22;21.90;;;11.10;;
28605;SDS011;46498;49.968;7.754;2024-01-30T22:22:24;25.40;;;11.75;;
28605;SDS011;46498;49.968;7.754;2024-01-30T22:27:25;23.05;;;11.07;;
28605;SDS011;46498;49.968;7.754;2024-01-30T22:32:26;43.17;;;19.30;;
28605;SDS011;46498;49.968;7.754;2024-01-30T22:37:27;28.23;;;15.18;;
28605;SDS011;46498;49.968;7.754;2024-01-30T22:42:28;28.87;;;14.10;;
28605;SDS011;46498;49.968;7.754;2024-01-30T22:47:29;18.02;;;9.93;;
28605;SDS011;46498;49.968;7.754;2024-01-30T22:52:30;19.87;;;11.65;;
28605;SDS011;46498;49.968;7.754;2024-01-30T22:57:31;25.88;;;14.20;;
28605;SDS011;46498;49.968;7.754;2024-01-30T23:02:33;28.17;;;15.93;;
28605;SDS011;46498;49.968;7.754;2024-01-30T23:07:34;23.17;;;14.20;;
28605;SDS011;46498;49.968;7.754;2024-01-30T23:12:41;17.75;;;10.48;;
28605;SDS011;46498;49.968;7.754;2024-01-30T23:17:45;17.92;;;10.13;;
28605;SDS011;46498;49.968;7.754;2024-01-30T23:22:49;11.52;;;7.97;;
28605;SDS011;46498;49.968;7.754;2024-01-30T23:27:49;16.02;;;8.48;;
28605;SDS011;46498;49.968;7.754;2024-01-30T23:32:50;17.05;;;9.05;;
28605;SDS011;46498;49.968;7.754;2024-01-30T23:37:54;13.68;;;6.47;;
28605;SDS011;46498;49.968;7.754;2024-01-30T23:42:55;13.35;;;7.15;;
28605;SDS011;46498;49.968;7.754;2024-01-30T23:47:56;14.98;;;6.75;;
28605;SDS011;46498;49.968;7.754;2024-01-30T23:52:57;8.63;;;5.70;;
28605;SDS011;46498;49.968;7.754;2024-01-30T23:57:57;11.98;;;5.85;;
